createdAt,value
2019-05-29T00:01:20.418Z,8.87
2019-05-29T00:03:47.654Z,8.77
2019-05-29T00:06:16.135Z,8.69
2019-05-29T00:08:44.656Z,8.80
2019-05-29T00:11:14.090Z,8.78
2019-05-29T00:13:43.613Z,9.00
2019-05-29T00:16:12.472Z,8.88
2019-05-29T00:18:40.963Z,8.83
2019-05-29T00:21:11.558Z,9.01
2019-05-29T00:23:39.570Z,8.89
2019-05-29T00:26:08.344Z,8.74
2019-05-29T00:28:36.904Z,8.72
2019-05-29T00:31:05.778Z,8.67
2019-05-29T00:33:34.407Z,8.66
2019-05-29T00:36:02.925Z,8.65
2019-05-29T00:38:31.379Z,8.75
2019-05-29T00:40:59.856Z,8.60
2019-05-29T00:43:28.313Z,8.63
2019-05-29T00:45:56.818Z,8.73
2019-05-29T00:48:25.257Z,8.72
2019-05-29T00:50:53.698Z,8.66
2019-05-29T00:53:22.219Z,8.85
2019-05-29T00:55:50.624Z,8.57
2019-05-29T00:58:19.799Z,8.47
2019-05-29T01:00:48.557Z,8.45
2019-05-29T01:03:17.921Z,8.47
2019-05-29T01:05:46.477Z,8.50
2019-05-29T01:08:15.017Z,8.51
2019-05-29T01:10:43.463Z,8.58
2019-05-29T01:13:13.037Z,8.56
2019-05-29T01:15:41.668Z,8.59
2019-05-29T01:18:10.109Z,8.55
2019-05-29T01:20:38.572Z,8.49
2019-05-29T01:23:07.087Z,8.67
2019-05-29T01:25:35.505Z,8.67
2019-05-29T01:28:04.189Z,8.54
2019-05-29T01:30:32.714Z,8.74
2019-05-29T01:33:01.254Z,8.72
2019-05-29T01:35:29.783Z,8.77
2019-05-29T01:37:58.254Z,8.66
2019-05-29T01:40:29.423Z,8.63
2019-05-29T01:42:56.900Z,8.65
2019-05-29T01:45:25.319Z,8.68
2019-05-29T01:47:53.803Z,8.72
2019-05-29T01:50:22.293Z,8.77
2019-05-29T01:52:50.726Z,8.78
2019-05-29T01:55:19.826Z,8.79
2019-05-29T01:57:48.366Z,8.88
2019-05-29T02:00:17.772Z,8.79
2019-05-29T02:02:46.316Z,8.78
2019-05-29T02:05:15.741Z,8.83
2019-05-29T02:07:44.332Z,8.77
2019-05-29T02:10:13.784Z,8.73
2019-05-29T02:12:42.210Z,8.74
2019-05-29T02:15:24.890Z,8.86
2019-05-29T02:17:41.625Z,8.87
2019-05-29T02:20:10.686Z,8.85
2019-05-29T02:22:39.138Z,8.82
2019-05-29T02:25:08.187Z,8.85
2019-05-29T02:27:36.660Z,8.82
2019-05-29T02:30:10.185Z,8.78
2019-05-29T02:32:38.607Z,8.75
2019-05-29T02:35:07.410Z,8.72
2019-05-29T02:37:35.902Z,8.77
2019-05-29T02:40:06.575Z,8.78
2019-05-29T02:42:35.148Z,8.76
2019-05-29T02:45:04.938Z,8.78
2019-05-29T02:47:33.348Z,8.71
2019-05-29T02:50:01.862Z,8.72
2019-05-29T02:52:30.837Z,8.74
2019-05-29T02:54:59.430Z,8.92
2019-05-29T02:57:29.052Z,8.88
2019-05-29T02:59:57.646Z,8.92
2019-05-29T03:02:27.744Z,8.81
2019-05-29T03:04:56.311Z,8.89
2019-05-29T03:07:26.316Z,8.83
2019-05-29T03:09:54.983Z,8.84
2019-05-29T03:12:25.041Z,8.81
2019-05-29T03:14:53.585Z,8.72
2019-05-29T03:17:23.641Z,8.74
2019-05-29T03:19:52.385Z,8.81
2019-05-29T03:22:20.779Z,8.83
2019-05-29T03:24:49.281Z,8.83
2019-05-29T03:27:17.743Z,8.73
2019-05-29T03:29:46.232Z,8.72
2019-05-29T03:32:14.898Z,8.78
2019-05-29T03:34:46.760Z,8.87
2019-05-29T03:37:13.575Z,8.82
2019-05-29T03:39:42.153Z,8.77
2019-05-29T03:42:10.569Z,8.69
2019-05-29T03:44:38.999Z,8.84
2019-05-29T03:47:07.574Z,8.77
2019-05-29T03:49:37.413Z,8.79
2019-05-29T03:52:06.402Z,8.82
2019-05-29T03:54:35.462Z,8.83
2019-05-29T03:57:04.170Z,8.87
2019-05-29T03:59:32.894Z,8.86
2019-05-29T04:02:01.405Z,8.83
2019-05-29T04:04:31.383Z,8.88
2019-05-29T04:06:59.990Z,8.90
2019-05-29T04:09:29.228Z,8.87
2019-05-29T04:11:58.086Z,8.89
2019-05-29T04:14:27.537Z,8.90
2019-05-29T04:17:00.407Z,9.05
2019-05-29T04:19:30.536Z,8.89
2019-05-29T04:22:03.151Z,8.92
2019-05-29T04:24:34.087Z,9.02
2019-05-29T04:27:04.099Z,8.96
2019-05-29T04:29:33.846Z,9.03
2019-05-29T04:32:02.794Z,9.07
2019-05-29T04:34:31.692Z,8.98
2019-05-29T04:37:01.460Z,8.96
2019-05-29T04:39:30.646Z,8.94
2019-05-29T04:41:59.160Z,8.87
2019-05-29T04:44:28.843Z,8.97
2019-05-29T04:47:10.534Z,9.01
2019-05-29T04:49:29.179Z,9.05
2019-05-29T04:51:57.623Z,9.20
2019-05-29T04:54:26.082Z,9.24
2019-05-29T04:56:54.502Z,9.18
2019-05-29T04:59:22.945Z,9.22
2019-05-29T05:01:51.371Z,9.28
2019-05-29T05:04:19.800Z,9.48
2019-05-29T05:06:48.268Z,9.40
2019-05-29T05:09:16.728Z,9.45
2019-05-29T05:11:45.250Z,9.42
2019-05-29T05:14:13.664Z,9.43
2019-05-29T05:16:42.109Z,9.43
2019-05-29T05:19:10.531Z,9.55
2019-05-29T05:21:40.160Z,9.62
2019-05-29T05:24:08.861Z,9.52
2019-05-29T05:26:38.429Z,9.83
2019-05-29T05:29:06.939Z,9.71
2019-05-29T05:31:36.496Z,9.79
2019-05-29T05:34:05.524Z,9.79
2019-05-29T05:36:34.706Z,9.91
2019-05-29T05:39:05.518Z,9.93
2019-05-29T05:41:34.744Z,9.95
2019-05-29T05:44:03.366Z,10.00
2019-05-29T05:46:32.870Z,9.80
2019-05-29T05:49:01.391Z,9.96
2019-05-29T05:51:31.164Z,9.72
2019-05-29T05:53:59.746Z,9.70
2019-05-29T05:56:28.264Z,9.80
2019-05-29T05:58:56.756Z,9.68
2019-05-29T06:01:25.238Z,9.78
2019-05-29T06:03:53.730Z,9.84
2019-05-29T06:06:22.177Z,9.85
2019-05-29T06:08:50.600Z,9.99
2019-05-29T06:11:19.010Z,10.08
2019-05-29T06:13:47.457Z,10.03
2019-05-29T06:16:15.931Z,10.02
2019-05-29T06:18:44.479Z,9.96
2019-05-29T06:21:13.032Z,10.05
2019-05-29T06:23:41.610Z,10.09
2019-05-29T06:26:10.111Z,10.09
2019-05-29T06:28:39.123Z,10.15
2019-05-29T06:31:07.670Z,10.19
2019-05-29T06:33:37.289Z,10.24
2019-05-29T06:36:05.875Z,10.27
2019-05-29T06:38:35.640Z,10.50
2019-05-29T06:41:04.287Z,10.51
2019-05-29T06:43:33.783Z,10.62
2019-05-29T06:46:02.304Z,10.71
2019-05-29T06:48:42.996Z,10.85
2019-05-29T06:51:02.309Z,10.83
2019-05-29T06:53:30.800Z,10.99
2019-05-29T06:56:01.005Z,10.96
2019-05-29T06:58:29.902Z,10.96
2019-05-29T07:00:58.405Z,11.12
2019-05-29T07:03:26.826Z,11.16
2019-05-29T07:05:55.630Z,11.05
2019-05-29T07:08:38.038Z,11.06
2019-05-29T07:10:54.329Z,11.21
2019-05-29T07:13:22.895Z,11.22
2019-05-29T07:15:51.393Z,11.39
2019-05-29T07:18:20.052Z,11.26
2019-05-29T07:20:48.557Z,11.21
2019-05-29T07:23:17.126Z,11.19
2019-05-29T07:25:45.799Z,11.17
2019-05-29T07:28:14.716Z,11.16
2019-05-29T07:30:49.586Z,11.12
2019-05-29T07:33:13.386Z,11.17
2019-05-29T07:35:41.895Z,11.04
2019-05-29T07:38:10.319Z,11.17
2019-05-29T07:40:40.512Z,11.21
2019-05-29T07:43:09.124Z,11.32
2019-05-29T07:45:37.872Z,11.18
2019-05-29T07:48:06.545Z,11.25
2019-05-29T07:50:35.003Z,11.23
2019-05-29T07:53:03.526Z,11.23
2019-05-29T07:55:31.967Z,11.24
2019-05-29T07:58:00.421Z,11.28
2019-05-29T08:00:35.889Z,11.28
2019-05-29T08:02:59.061Z,11.48
2019-05-29T08:05:27.617Z,11.43
2019-05-29T08:07:56.123Z,11.61
2019-05-29T08:10:24.703Z,11.58
2019-05-29T08:12:55.775Z,11.54
2019-05-29T08:15:23.485Z,11.63
2019-05-29T08:17:52.015Z,11.76
2019-05-29T08:20:20.605Z,11.69
2019-05-29T08:22:49.073Z,11.68
2019-05-29T08:25:17.946Z,11.55
2019-05-29T08:27:46.693Z,11.76
2019-05-29T08:30:15.868Z,11.98
2019-05-29T08:32:45.349Z,11.29
2019-05-29T08:35:15.031Z,11.78
2019-05-29T08:37:43.527Z,11.80
2019-05-29T08:40:12.206Z,11.90
2019-05-29T08:42:41.165Z,12.65
2019-05-29T08:45:10.186Z,13.17
2019-05-29T08:47:38.608Z,12.27
2019-05-29T08:50:18.153Z,12.24
2019-05-29T08:52:38.077Z,12.52
2019-05-29T08:55:06.975Z,12.39
2019-05-29T08:57:35.412Z,12.66
2019-05-29T09:00:09.122Z,12.62
2019-05-29T09:02:37.650Z,12.42
2019-05-29T09:05:08.040Z,13.35
2019-05-29T09:07:36.554Z,14.74
2019-05-29T09:10:09.797Z,15.12
2019-05-29T09:12:38.293Z,15.20
2019-05-29T09:15:10.795Z,15.34
2019-05-29T09:17:39.332Z,14.29
2019-05-29T09:20:25.310Z,14.41
2019-05-29T09:22:39.164Z,14.18
2019-05-29T09:25:08.132Z,13.62
2019-05-29T09:27:36.591Z,13.92
2019-05-29T09:30:06.984Z,14.01
2019-05-29T09:32:49.685Z,14.02
2019-05-29T09:35:06.479Z,13.70
2019-05-29T09:37:35.093Z,13.72
2019-05-29T09:40:05.096Z,13.57
2019-05-29T09:42:33.648Z,13.14
2019-05-29T09:45:02.151Z,13.28
2019-05-29T09:47:30.574Z,12.91
2019-05-29T09:49:59.025Z,12.92
2019-05-29T09:52:30.683Z,12.83
2019-05-29T09:54:58.290Z,12.98
2019-05-29T09:57:26.766Z,13.09
2019-05-29T09:59:56.383Z,13.25
2019-05-29T10:02:25.380Z,13.46
2019-05-29T10:04:54.841Z,13.63
2019-05-29T10:07:24.191Z,13.93
2019-05-29T10:09:53.676Z,13.83
2019-05-29T10:12:22.975Z,13.35
2019-05-29T10:14:51.604Z,12.68
2019-05-29T10:17:20.033Z,13.17
2019-05-29T10:19:48.445Z,13.79
2019-05-29T10:22:16.945Z,14.15
2019-05-29T10:24:45.468Z,14.19
2019-05-29T10:27:13.980Z,14.27
2019-05-29T10:29:42.533Z,14.24
2019-05-29T10:32:10.977Z,13.42
2019-05-29T10:34:39.555Z,13.46
2019-05-29T10:37:08.188Z,13.53
2019-05-29T10:39:36.621Z,13.55
2019-05-29T10:42:05.595Z,13.24
2019-05-29T10:44:34.086Z,13.35
2019-05-29T10:47:02.565Z,13.16
2019-05-29T10:49:31.078Z,12.85
2019-05-29T10:52:13.727Z,12.29
2019-05-29T10:54:29.765Z,11.71
2019-05-29T10:56:58.269Z,11.82
2019-05-29T10:59:26.792Z,11.06
2019-05-29T11:01:55.584Z,11.36
2019-05-29T11:04:24.142Z,10.73
2019-05-29T11:06:54.668Z,11.40
2019-05-29T11:09:22.836Z,11.03
2019-05-29T11:11:53.269Z,11.42
2019-05-29T11:14:21.657Z,11.33
2019-05-29T11:16:50.930Z,11.69
2019-05-29T11:19:19.541Z,12.10
2019-05-29T11:21:48.504Z,11.82
2019-05-29T11:24:18.189Z,11.50
2019-05-29T11:26:48.262Z,11.38
2019-05-29T11:29:16.851Z,12.53
2019-05-29T11:31:45.309Z,12.56
2019-05-29T11:34:13.887Z,11.85
2019-05-29T11:36:43.967Z,12.52
2019-05-29T11:39:13.990Z,12.09
2019-05-29T11:41:42.409Z,12.82
2019-05-29T11:44:10.900Z,13.14
2019-05-29T11:46:39.356Z,12.47
2019-05-29T11:49:07.831Z,12.18
2019-05-29T11:51:36.351Z,12.58
2019-05-29T11:54:05.410Z,12.82
2019-05-29T11:56:33.863Z,12.77
2019-05-29T11:59:03.176Z,13.48
2019-05-29T12:01:49.003Z,14.16
2019-05-29T12:04:24.166Z,13.14
2019-05-29T12:06:32.065Z,13.22
2019-05-29T12:09:01.902Z,14.00
2019-05-29T12:11:30.412Z,12.66
2019-05-29T12:14:00.551Z,13.02
2019-05-29T12:16:29.094Z,13.91
2019-05-29T12:18:57.839Z,13.31
2019-05-29T12:21:26.321Z,12.77
2019-05-29T12:23:54.746Z,13.33
2019-05-29T12:26:23.497Z,13.10
2019-05-29T12:28:53.926Z,13.31
2019-05-29T12:31:22.416Z,13.80
2019-05-29T12:33:50.852Z,13.93
2019-05-29T12:36:19.340Z,13.40
2019-05-29T12:38:47.787Z,13.18
2019-05-29T12:41:16.294Z,13.12
2019-05-29T12:43:44.887Z,14.07
2019-05-29T12:46:13.417Z,14.68
2019-05-29T12:48:41.848Z,15.11
2019-05-29T12:51:10.455Z,14.89
2019-05-29T12:53:39.014Z,15.22
2019-05-29T12:56:07.503Z,14.89
2019-05-29T12:58:36.099Z,14.93
2019-05-29T13:01:05.219Z,15.24
2019-05-29T13:03:34.304Z,15.30
2019-05-29T13:06:02.861Z,15.18
2019-05-29T13:08:31.508Z,14.77
2019-05-29T13:11:00.461Z,15.25
2019-05-29T13:13:29.018Z,14.29
2019-05-29T13:15:58.744Z,14.40
2019-05-29T13:18:27.472Z,14.88
2019-05-29T13:20:56.729Z,15.21
2019-05-29T13:23:25.387Z,15.23
2019-05-29T13:25:53.869Z,14.96
2019-05-29T13:28:22.427Z,15.07
2019-05-29T13:30:50.967Z,15.46
2019-05-29T13:33:19.482Z,14.02
2019-05-29T13:35:47.979Z,14.59
2019-05-29T13:38:16.445Z,15.01
2019-05-29T13:40:44.995Z,15.27
2019-05-29T13:43:15.814Z,14.98
2019-05-29T13:45:43.672Z,14.87
2019-05-29T13:48:12.223Z,14.66
2019-05-29T13:50:40.631Z,14.93
2019-05-29T13:53:09.162Z,14.80
2019-05-29T13:55:37.751Z,15.03
2019-05-29T13:58:06.303Z,15.08
2019-05-29T14:00:35.312Z,15.06
2019-05-29T14:03:04.878Z,15.29
2019-05-29T14:05:33.591Z,15.39
2019-05-29T14:08:02.723Z,14.79
2019-05-29T14:10:31.426Z,15.10
2019-05-29T14:13:00.919Z,14.73
2019-05-29T14:15:29.937Z,14.70
2019-05-29T14:17:58.445Z,14.88
2019-05-29T14:20:26.971Z,15.10
2019-05-29T14:22:55.500Z,14.36
2019-05-29T14:25:24.013Z,14.65
2019-05-29T14:27:52.641Z,13.77
2019-05-29T14:30:21.375Z,13.99
2019-05-29T14:32:49.902Z,14.71
2019-05-29T14:35:18.493Z,14.91
2019-05-29T14:37:46.959Z,15.34
2019-05-29T14:40:17.036Z,15.41
2019-05-29T14:42:45.443Z,15.50
2019-05-29T14:45:14.512Z,15.01
2019-05-29T14:47:43.035Z,15.07
2019-05-29T14:50:13.375Z,15.17
2019-05-29T14:52:42.050Z,15.29
2019-05-29T14:55:16.101Z,15.28
2019-05-29T14:57:41.328Z,15.14
2019-05-29T15:00:24.360Z,14.74
2019-05-29T15:02:44.608Z,14.46
2019-05-29T15:05:14.953Z,13.82
2019-05-29T15:07:43.772Z,14.29
2019-05-29T15:10:26.403Z,14.44
2019-05-29T15:12:44.377Z,14.36
2019-05-29T15:15:16.559Z,14.45
2019-05-29T15:17:44.646Z,14.57
2019-05-29T15:20:14.821Z,14.57
2019-05-29T15:22:44.157Z,14.69
2019-05-29T15:25:21.813Z,14.70
2019-05-29T15:27:43.495Z,14.80
2019-05-29T15:30:18.719Z,14.87
2019-05-29T15:32:42.657Z,15.08
2019-05-29T15:35:16.026Z,15.37
2019-05-29T15:37:42.234Z,15.52
2019-05-29T15:40:12.907Z,15.55
2019-05-29T15:42:41.487Z,15.42
2019-05-29T15:45:12.225Z,15.44
2019-05-29T15:47:40.722Z,15.38
2019-05-29T15:50:11.415Z,15.38
2019-05-29T15:52:40.119Z,15.41
2019-05-29T15:55:27.278Z,15.38
2019-05-29T15:57:40.089Z,15.29
2019-05-29T16:00:13.717Z,15.33
2019-05-29T16:02:42.502Z,15.20
2019-05-29T16:05:13.147Z,15.01
2019-05-29T16:07:41.798Z,14.69
2019-05-29T16:10:14.483Z,14.41
2019-05-29T16:12:42.278Z,14.34
2019-05-29T16:15:11.533Z,14.38
2019-05-29T16:17:41.556Z,13.94
2019-05-29T16:20:10.733Z,14.09
2019-05-29T16:22:39.495Z,14.05
2019-05-29T16:25:10.674Z,14.01
2019-05-29T16:27:39.474Z,14.17
2019-05-29T16:30:09.043Z,14.15
2019-05-29T16:32:37.589Z,13.90
2019-05-29T16:35:07.145Z,14.01
2019-05-29T16:37:35.687Z,14.07
2019-05-29T16:40:06.925Z,14.05
2019-05-29T16:42:35.553Z,13.92
2019-05-29T16:45:09.516Z,13.30
2019-05-29T16:47:38.377Z,13.62
2019-05-29T16:50:08.525Z,13.17
2019-05-29T16:52:37.336Z,12.90
2019-05-29T16:55:08.107Z,12.96
2019-05-29T16:57:36.630Z,13.04
2019-05-29T17:00:07.983Z,13.07
2019-05-29T17:02:36.490Z,13.20
2019-05-29T17:05:06.851Z,12.63
2019-05-29T17:07:35.382Z,13.05
2019-05-29T17:10:06.345Z,13.20
2019-05-29T17:12:34.878Z,13.01
2019-05-29T17:15:04.978Z,13.11
2019-05-29T17:17:33.566Z,12.93
2019-05-29T17:20:02.614Z,13.12
2019-05-29T17:22:31.146Z,13.22
2019-05-29T17:24:59.684Z,12.81
2019-05-29T17:27:28.286Z,12.49
2019-05-29T17:29:56.849Z,12.82
2019-05-29T17:32:25.439Z,12.72
2019-05-29T17:34:53.914Z,12.73
2019-05-29T17:37:23.132Z,12.88
2019-05-29T17:39:51.785Z,13.03
2019-05-29T17:42:20.373Z,13.23
2019-05-29T17:44:48.838Z,13.39
2019-05-29T17:47:17.750Z,13.41
2019-05-29T17:49:46.284Z,13.32
2019-05-29T17:52:15.735Z,12.97
2019-05-29T17:54:44.351Z,13.11
2019-05-29T17:57:12.833Z,13.20
2019-05-29T17:59:41.358Z,13.14
2019-05-29T18:02:09.899Z,12.91
2019-05-29T18:04:38.333Z,12.91
2019-05-29T18:07:06.806Z,12.92
2019-05-29T18:09:35.194Z,12.90
2019-05-29T18:12:03.792Z,12.99
2019-05-29T18:14:32.323Z,12.90
2019-05-29T18:17:00.762Z,12.80
2019-05-29T18:19:29.299Z,12.78
2019-05-29T18:21:58.072Z,12.74
2019-05-29T18:24:27.914Z,12.88
2019-05-29T18:26:59.085Z,12.75
2019-05-29T18:29:26.837Z,12.94
2019-05-29T18:31:55.355Z,12.76
2019-05-29T18:34:25.246Z,12.69
2019-05-29T18:36:53.970Z,12.61
2019-05-29T18:39:22.532Z,12.41
2019-05-29T18:41:51.118Z,12.33
2019-05-29T18:44:20.741Z,12.23
2019-05-29T18:46:49.365Z,12.26
2019-05-29T18:49:17.810Z,12.20
2019-05-29T18:51:46.317Z,12.23
2019-05-29T18:54:14.777Z,12.06
2019-05-29T18:56:43.285Z,11.91
2019-05-29T18:59:11.721Z,11.95
2019-05-29T19:01:40.331Z,11.88
2019-05-29T19:04:09.447Z,11.79
2019-05-29T19:06:37.922Z,11.85
2019-05-29T19:09:08.078Z,11.68
2019-05-29T19:11:36.501Z,11.63
2019-05-29T19:14:05.613Z,11.45
2019-05-29T19:16:34.193Z,11.46
2019-05-29T19:19:02.718Z,11.44
2019-05-29T19:21:32.765Z,11.46
2019-05-29T19:24:01.262Z,11.36
2019-05-29T19:26:33.681Z,11.38
2019-05-29T19:29:00.099Z,11.00
2019-05-29T19:31:29.142Z,11.03
2019-05-29T19:33:57.573Z,10.81
2019-05-29T19:36:26.087Z,10.88
2019-05-29T19:38:54.618Z,10.48
2019-05-29T19:41:23.946Z,10.37
2019-05-29T19:43:52.659Z,10.45
2019-05-29T19:46:21.141Z,10.56
2019-05-29T19:48:49.659Z,10.55
2019-05-29T19:51:18.172Z,10.43
2019-05-29T19:53:46.728Z,10.25
2019-05-29T19:56:15.235Z,10.29
2019-05-29T19:58:43.810Z,9.85
2019-05-29T20:01:12.322Z,10.15
2019-05-29T20:03:40.818Z,10.12
2019-05-29T20:06:09.390Z,10.05
2019-05-29T20:08:39.615Z,9.61
2019-05-29T20:11:08.393Z,9.71
2019-05-29T20:13:37.913Z,9.73
2019-05-29T20:16:06.587Z,9.58
2019-05-29T20:18:36.164Z,9.37
2019-05-29T20:21:04.922Z,9.25
2019-05-29T20:23:34.553Z,9.18
2019-05-29T20:26:03.206Z,9.02
2019-05-29T20:28:32.117Z,8.81
2019-05-29T20:31:00.642Z,8.72
2019-05-29T20:33:30.350Z,8.69
2019-05-29T20:35:59.198Z,8.84
2019-05-29T20:38:27.629Z,8.81
2019-05-29T20:40:56.948Z,8.84
2019-05-29T20:43:25.485Z,8.96
2019-05-29T20:45:53.969Z,8.98
2019-05-29T20:48:22.887Z,8.82
2019-05-29T20:50:51.356Z,8.84
2019-05-29T20:53:19.784Z,8.55
2019-05-29T20:55:48.253Z,8.28
2019-05-29T20:58:24.646Z,8.26
2019-05-29T21:00:47.031Z,8.41
2019-05-29T21:03:15.572Z,8.52
2019-05-29T21:05:44.069Z,8.19
2019-05-29T21:08:12.611Z,8.08
2019-05-29T21:10:42.052Z,8.14
2019-05-29T21:13:10.806Z,7.99
2019-05-29T21:15:40.365Z,7.95
2019-05-29T21:18:08.777Z,7.89
2019-05-29T21:20:38.347Z,8.01
2019-05-29T21:23:06.988Z,7.99
2019-05-29T21:25:36.622Z,8.09
2019-05-29T21:28:05.403Z,7.92
2019-05-29T21:30:35.433Z,7.85
2019-05-29T21:33:04.128Z,7.88
2019-05-29T21:35:32.593Z,7.84
2019-05-29T21:38:00.993Z,8.07
2019-05-29T21:40:29.416Z,8.10
2019-05-29T21:42:58.188Z,8.24
2019-05-29T21:45:26.711Z,8.09
2019-05-29T21:47:55.125Z,7.94
2019-05-29T21:50:24.495Z,7.79
2019-05-29T21:52:52.969Z,7.95
2019-05-29T21:55:21.465Z,7.71
2019-05-29T21:57:50.379Z,7.79
2019-05-29T22:00:23.848Z,7.66
2019-05-29T22:02:52.263Z,7.77
2019-05-29T22:05:21.055Z,7.59
2019-05-29T22:07:49.499Z,7.52
2019-05-29T22:10:18.313Z,7.54
2019-05-29T22:12:46.918Z,7.72
2019-05-29T22:15:16.121Z,7.66
2019-05-29T22:17:44.571Z,7.54
2019-05-29T22:20:13.135Z,7.29
2019-05-29T22:22:41.703Z,7.29
2019-05-29T22:25:10.191Z,7.23
2019-05-29T22:27:38.699Z,7.56
2019-05-29T22:30:08.227Z,7.12
2019-05-29T22:32:36.698Z,7.12
2019-05-29T22:35:06.898Z,7.04
2019-05-29T22:37:35.432Z,7.04
2019-05-29T22:40:06.078Z,7.02
2019-05-29T22:42:34.686Z,7.18
2019-05-29T22:45:03.317Z,7.19
2019-05-29T22:47:31.785Z,7.17
2019-05-29T22:50:00.347Z,7.22
2019-05-29T22:52:28.812Z,7.19
2019-05-29T22:54:58.037Z,7.14
2019-05-29T22:57:26.568Z,7.12
2019-05-29T22:59:55.901Z,7.12
2019-05-29T23:02:24.508Z,7.12
2019-05-29T23:04:54.146Z,7.09
2019-05-29T23:07:22.620Z,7.09
2019-05-29T23:09:52.132Z,7.08
2019-05-29T23:12:20.923Z,7.07
2019-05-29T23:14:49.373Z,7.03
2019-05-29T23:17:17.831Z,7.08
2019-05-29T23:19:46.320Z,7.01
2019-05-29T23:22:14.764Z,7.13
2019-05-29T23:24:43.176Z,7.04
2019-05-29T23:27:11.709Z,7.14
2019-05-29T23:29:48.886Z,7.07
2019-05-29T23:32:10.349Z,6.94
2019-05-29T23:34:38.856Z,6.90
2019-05-29T23:37:07.341Z,6.84
2019-05-29T23:39:35.801Z,6.76
2019-05-29T23:42:04.354Z,6.79
2019-05-29T23:44:32.765Z,6.65
2019-05-29T23:47:01.804Z,6.62
2019-05-29T23:49:30.289Z,6.62
2019-05-29T23:51:59.708Z,6.51
2019-05-29T23:54:28.306Z,6.46
2019-05-29T23:56:57.885Z,6.41
2019-05-29T23:59:26.449Z,6.48
